Boston, Massachusetts
Traffic Map
Current Weather Conditions
Boston, Massachusetts
Broken Clouds
Broken Clouds
58°
Feels Like: 58°
Wind Chill: 58° Ceiling: 2600
Heat Index: 58° Visibility: 10mi
Dew Point: 50° Wind: 20mph
Humidity: 75% Direction: 60° (ENE)
Pressure: 30.51in Gusts: 0mph
Raw Report DataKBOS 300254Z 06017KT 10SM BKN026 14/10 A3051 RMK AO2 SLP331 T01440100 53007
Traffic Incident Summary
Active as of:
Severity:
Category:
InformationThere was an issue retrieving the traffic information for this location. Please try a different location or try again shortly.
Advertisements
Track Severe Weather on mobile